Main page
METAR-TAF:

METAR-TAF

Airports :

Kuressaare Airport

Kuressaare, Estonia

latitude: 58-13-48N, longitude: 022-30-34E, elevation: 4 m

Current weather observation

The report was made 43 minutes ago, at 01:50 UTC
Wind 5 kt from the East/Northeast, varying between North and East
Temperature 10°C
Humidity 82%
Pressure 1024 hPa
Visibility 10 km or more

METAR: EEKE 220150Z AUTO 06005KT 350V080 9999NDV NCD 10/07 Q1024

Time: 05:33 (02:33 UTC)

Forecast

The report was made 12 hours and 33 minutes ago, at 14:00 UTC
Forecast valid from 21 at 15 UTC to 21 at 21 UTC
Wind 8 kt from the Southeast
Visibility 10 km or more
no clouds below 1500 m and no cumulonimbus

TAF: EEKE 211400Z 2115/2121 13008KT CAVOK

Weather observations and forecasts of more than 4000 airports (METAR and TAF reports).

The available stations are represented by yellow and red dots on the map.

Hover mouse over dot to see the name of the station.

Then click to see weather observations and forecasts.

To change the map : click on the green buttons with a black cross to zoom in, on the green button with a dash to zoom out, or on the green arrows for adjacent maps.


METAR-TAF: